Time;durP1;ratioP1;P1;durP2;ratioP2;P2;SDS_P1;SDS_P2;PMS_P1;PMS_P2;Temp;Humidity;BMP_temperature;BMP_pressure;BME280_temperature;BME280_humidity;BME280_pressure;Samples;Min_cycle;Max_cycle;Signal;HPM_P1;HPM_P2
2022/04/26 03:38:16;;;;;;;4.45;2.10;;;26.10;55.50;;;;;;5088737;28;20682;-42
2022/04/26 03:40:42;;;;;;;5.68;1.83;;;26.10;55.50;;;;;;5092265;28;20035;-43
2022/04/26 03:43:08;;;;;;;2.85;1.55;;;26.10;55.60;;;;;;5084169;28;20056;-43
2022/04/26 03:45:34;;;;;;;3.65;1.73;;;26.10;55.60;;;;;;5085225;28;20564;-43
2022/04/26 03:48:00;;;;;;;4.20;1.73;;;26.10;55.50;;;;;;5098177;28;20059;-45
2022/04/26 03:50:26;;;;;;;3.95;1.58;;;26.10;55.50;;;;;;5084695;28;20037;-43
2022/04/26 03:52:53;;;;;;;2.47;1.45;;;26.10;55.50;;;;;;5114336;28;20100;-43
2022/04/26 03:55:23;;;;;;;3.75;1.88;;;26.10;55.50;;;;;;5085668;28;20039;-43
2022/04/26 03:57:50;;;;;;;2.42;1.48;;;26.10;55.60;;;;;;5103335;28;20039;-44
2022/04/26 04:00:16;;;;;;;2.55;1.60;;;26.10;55.60;;;;;;5104790;28;20052;-43
2022/04/26 04:02:42;;;;;;;2.72;1.88;;;26.00;55.50;;;;;;5100132;28;20028;-43
2022/04/26 04:05:08;;;;;;;3.95;1.85;;;26.00;55.50;;;;;;5100221;28;20091;-43
2022/04/26 04:07:34;;;;;;;2.27;1.77;;;26.00;55.50;;;;;;5102203;28;20028;-43
2022/04/26 04:10:01;;;;;;;3.65;1.77;;;26.00;55.60;;;;;;5104354;28;20365;-42
2022/04/26 04:12:27;;;;;;;2.20;1.45;;;25.90;55.50;;;;;;5103505;28;20032;-43
2022/04/26 04:14:53;;;;;;;2.90;1.70;;;25.90;55.60;;;;;;5104075;28;20020;-43
2022/04/26 04:17:19;;;;;;;2.15;1.63;;;25.90;55.60;;;;;;5103849;28;20034;-43
2022/04/26 04:19:45;;;;;;;2.75;1.48;;;25.90;55.60;;;;;;5103770;28;20032;-43
2022/04/26 04:22:14;;;;;;;2.42;1.67;;;25.80;55.60;;;;;;5103613;28;20044;-43
2022/04/26 04:24:40;;;;;;;2.58;1.55;;;25.90;55.60;;;;;;5090368;28;20062;-43
2022/04/26 04:27:09;;;;;;;2.58;1.50;;;25.80;55.60;;;;;;5101026;28;20128;-43
2022/04/26 04:29:35;;;;;;;2.63;1.60;;;25.80;55.60;;;;;;5099559;28;20033;-43
2022/04/26 04:32:01;;;;;;;1.80;1.30;;;25.80;55.60;;;;;;5083839;28;20210;-43
2022/04/26 04:34:27;;;;;;;1.88;1.58;;;25.80;55.70;;;;;;5083113;28;20092;-44
2022/04/26 04:36:53;;;;;;;2.00;1.50;;;25.80;55.70;;;;;;5095451;28;20028;-44
2022/04/26 04:39:20;;;;;;;1.90;1.50;;;25.80;55.80;;;;;;5101059;28;20080;-44
2022/04/26 04:41:47;;;;;;;2.40;1.60;;;25.70;55.80;;;;;;5104394;28;20021;-44
2022/04/26 04:44:13;;;;;;;2.63;1.40;;;25.70;55.80;;;;;;5099253;28;20036;-44
2022/04/26 04:46:39;;;;;;;3.00;1.42;;;25.70;55.80;;;;;;5095456;28;20047;-45
2022/04/26 04:49:05;;;;;;;1.98;1.42;;;25.70;55.80;;;;;;5103674;28;20031;-45
2022/04/26 04:51:31;;;;;;;2.38;1.52;;;25.70;56.40;;;;;;5091658;28;20036;-44
2022/04/26 04:53:57;;;;;;;3.17;1.67;;;25.60;55.80;;;;;;5083488;28;20056;-46
2022/04/26 04:56:26;;;;;;;3.00;1.25;;;25.60;55.70;;;;;;5092384;28;20024;-44
2022/04/26 04:58:55;;;;;;;2.05;1.65;;;25.60;55.80;;;;;;5104052;28;20122;-45
2022/04/26 05:01:21;;;;;;;2.45;1.75;;;25.60;55.80;;;;;;5123840;28;20024;-45
2022/04/26 05:03:47;;;;;;;4.95;1.60;;;25.60;55.80;;;;;;5106965;28;20048;-44
2022/04/26 05:06:17;;;;;;;4.10;1.70;;;25.50;55.70;;;;;;5089715;28;20028;-45
2022/04/26 05:08:44;;;;;;;2.05;1.48;;;25.50;55.80;;;;;;5103545;28;20029;-45
2022/04/26 05:11:10;;;;;;;1.90;1.38;;;25.50;55.70;;;;;;5102924;28;20027;-44
2022/04/26 05:13:36;;;;;;;2.50;1.27;;;25.50;55.70;;;;;;5103304;28;20028;-44
2022/04/26 05:16:03;;;;;;;2.65;1.38;;;25.50;55.70;;;;;;5102096;28;20032;-45
2022/04/26 05:18:29;;;;;;;1.57;1.27;;;25.40;55.70;;;;;;5095371;28;20036;-43
2022/04/26 05:20:55;;;;;;;2.83;1.27;;;25.40;55.80;;;;;;5101055;28;20272;-44
2022/04/26 05:26:06;;;;;;;2.05;1.50;;;25.40;55.70;;;;;;5089332;28;20075;-45
2022/04/26 05:28:32;;;;;;;3.00;1.38;;;25.40;55.70;;;;;;5103224;28;20043;-44
2022/04/26 05:30:58;;;;;;;1.95;1.33;;;25.40;55.70;;;;;;5102054;28;20032;-49
2022/04/26 05:33:26;;;;;;;2.65;1.50;;;25.40;55.70;;;;;;5108690;28;20042;-44
2022/04/26 05:35:52;;;;;;;2.25;1.52;;;25.30;56.00;;;;;;5099403;28;20043;-44
2022/04/26 05:38:18;;;;;;;2.40;1.30;;;25.40;55.70;;;;;;5099537;28;20050;-46
2022/04/26 05:40:44;;;;;;;1.60;1.23;;;25.30;55.60;;;;;;5083922;28;20029;-43
2022/04/26 05:43:10;;;;;;;1.73;1.00;;;25.30;55.60;;;;;;5089368;28;20127;-45
2022/04/26 05:45:36;;;;;;;1.83;1.37;;;25.30;55.60;;;;;;5082157;28;20032;-44
2022/04/26 05:48:04;;;;;;;1.15;0.98;;;25.20;55.60;;;;;;5094643;28;20025;-43
2022/04/26 05:50:30;;;;;;;1.70;1.20;;;25.20;55.60;;;;;;5095680;28;20035;-43
2022/04/26 05:52:56;;;;;;;1.85;1.20;;;25.20;55.60;;;;;;5109286;28;20057;-43
2022/04/26 05:55:22;;;;;;;2.20;1.30;;;25.20;55.60;;;;;;5095409;28;20539;-44
2022/04/26 05:57:49;;;;;;;1.75;1.23;;;25.20;55.60;;;;;;5093576;28;20075;-45
2022/04/26 06:00:15;;;;;;;2.15;1.50;;;25.20;55.60;;;;;;5101910;28;20554;-43
2022/04/26 06:02:42;;;;;;;1.30;1.17;;;25.10;55.50;;;;;;5100466;28;20043;-45
2022/04/26 06:05:08;;;;;;;1.80;1.10;;;25.20;55.60;;;;;;5100695;28;20056;-43
2022/04/26 06:07:35;;;;;;;1.83;1.33;;;25.10;55.60;;;;;;5101978;28;20028;-45
2022/04/26 06:10:01;;;;;;;2.58;1.27;;;25.10;55.60;;;;;;5087132;28;20044;-45
2022/04/26 06:12:27;;;;;;;1.97;1.23;;;25.10;55.60;;;;;;5082547;28;20051;-43
2022/04/26 06:14:54;;;;;;;1.90;1.17;;;25.10;55.60;;;;;;5088364;28;20032;-44
2022/04/26 06:17:20;;;;;;;1.45;1.23;;;25.00;55.60;;;;;;5101745;28;20496;-44
2022/04/26 06:19:46;;;;;;;1.92;1.23;;;25.00;56.10;;;;;;5101690;28;20024;-45
2022/04/26 06:22:13;;;;;;;2.83;1.43;;;25.00;55.60;;;;;;5102234;28;20054;-45
2022/04/26 06:24:39;;;;;;;1.85;1.10;;;25.00;55.50;;;;;;5105404;28;20036;-43
2022/04/26 06:27:05;;;;;;;1.80;1.17;;;25.00;55.50;;;;;;5101788;28;20024;-45
2022/04/26 06:29:31;;;;;;;1.58;1.30;;;25.00;55.50;;;;;;5100003;28;20032;-43
2022/04/26 06:31:57;;;;;;;1.50;1.38;;;25.00;55.50;;;;;;5100856;28;20803;-43
2022/04/26 06:34:23;;;;;;;2.10;1.40;;;24.90;55.50;;;;;;5101909;28;20111;-44
2022/04/26 06:36:49;;;;;;;2.35;1.20;;;25.00;55.50;;;;;;5091072;28;20028;-42
2022/04/26 06:39:16;;;;;;;1.58;1.20;;;24.90;55.50;;;;;;5085488;28;20035;-43
2022/04/26 06:41:42;;;;;;;1.33;1.17;;;24.90;55.50;;;;;;5099432;28;20058;-44
2022/04/26 06:44:08;;;;;;;1.93;1.43;;;24.90;55.50;;;;;;5102524;28;20051;-43
2022/04/26 06:46:37;;;;;;;1.50;1.20;;;24.90;55.50;;;;;;5093883;28;20363;-43
2022/04/26 06:49:04;;;;;;;1.50;1.27;;;24.80;55.40;;;;;;5101695;28;20035;-43
2022/04/26 06:51:40;;;;;;;2.37;1.30;;;24.80;55.30;;;;;;5100966;28;20024;-44
2022/04/26 06:54:07;;;;;;;1.95;1.10;;;24.90;55.40;;;;;;5090425;28;20289;-43
2022/04/26 06:56:33;;;;;;;2.63;1.50;;;24.80;55.30;;;;;;5097329;28;20093;-43
2022/04/26 06:58:59;;;;;;;1.37;1.00;;;24.80;55.30;;;;;;5097253;28;20771;-43
2022/04/26 07:01:26;;;;;;;1.83;1.20;;;24.80;55.30;;;;;;5085191;28;20036;-44
2022/04/26 07:03:52;;;;;;;1.67;1.48;;;24.80;55.20;;;;;;5101843;28;20130;-43
2022/04/26 07:06:18;;;;;;;1.63;1.30;;;24.80;55.30;;;;;;5105463;28;20053;-43
2022/04/26 07:08:44;;;;;;;2.08;1.40;;;24.80;55.30;;;;;;5095484;28;20059;-43
2022/04/26 07:11:10;;;;;;;1.73;1.30;;;24.80;55.30;;;;;;5091966;28;20039;-44
2022/04/26 07:13:36;;;;;;;1.77;1.17;;;24.80;55.30;;;;;;5086757;28;20453;-43
2022/04/26 07:16:03;;;;;;;1.75;1.10;;;24.70;55.20;;;;;;5093135;28;20020;-44
2022/04/26 07:18:29;;;;;;;1.95;1.15;;;24.80;55.30;;;;;;5093006;28;20069;-43
2022/04/26 07:20:55;;;;;;;1.30;1.20;;;24.70;55.20;;;;;;5098648;28;20032;-44
2022/04/26 07:23:21;;;;;;;1.20;1.10;;;24.70;55.20;;;;;;5096645;28;20064;-45
2022/04/26 07:25:48;;;;;;;3.85;1.17;;;24.70;55.20;;;;;;5104804;28;20055;-45
2022/04/26 07:28:14;;;;;;;1.23;1.10;;;24.60;55.20;;;;;;5103691;28;20032;-43
2022/04/26 07:30:41;;;;;;;2.35;1.17;;;24.70;55.30;;;;;;5105000;28;20028;-43
2022/04/26 07:35:53;;;;;;;1.88;1.30;;;24.60;55.20;;;;;;5084913;28;20097;-43
2022/04/26 07:38:20;;;;;;;1.35;1.00;;;24.60;55.20;;;;;;5084322;28;20037;-45
2022/04/26 07:40:46;;;;;;;2.13;1.20;;;24.60;55.20;;;;;;5084325;28;20028;-43
2022/04/26 07:43:13;;;;;;;1.55;1.30;;;24.60;55.20;;;;;;5094691;28;20036;-46
2022/04/26 07:45:40;;;;;;;2.22;1.35;;;24.60;55.20;;;;;;5092423;28;20139;-43
2022/04/26 07:48:07;;;;;;;1.55;1.17;;;24.50;55.30;;;;;;5091316;28;20669;-43
2022/04/26 07:50:33;;;;;;;1.42;1.10;;;24.50;55.20;;;;;;5115561;28;20100;-44
2022/04/26 07:53:00;;;;;;;2.53;1.23;;;24.50;55.20;;;;;;5124078;28;20019;-44
2022/04/26 07:55:27;;;;;;;1.92;1.15;;;24.50;55.30;;;;;;5093147;28;20032;-45
2022/04/26 07:57:53;;;;;;;1.40;1.10;;;24.50;55.30;;;;;;5102383;28;20103;-43
2022/04/26 08:00:19;;;;;;;2.08;1.13;;;24.50;55.30;;;;;;5102831;28;20867;-44
2022/04/26 08:02:45;;;;;;;2.10;1.15;;;24.50;55.30;;;;;;5104254;28;20039;-43
2022/04/26 08:05:14;;;;;;;1.40;1.10;;;24.40;55.20;;;;;;5099618;28;20029;-43
2022/04/26 08:07:41;;;;;;;1.20;1.10;;;24.50;55.30;;;;;;5117095;28;20053;-43
2022/04/26 08:10:12;;;;;;;1.98;1.20;;;24.50;55.30;;;;;;5119319;28;20024;-43
2022/04/26 08:12:39;;;;;;;2.20;1.05;;;24.40;55.20;;;;;;5104355;28;20039;-43
2022/04/26 08:15:05;;;;;;;1.00;0.90;;;24.40;55.20;;;;;;5104156;28;20024;-43
2022/04/26 08:17:31;;;;;;;1.63;1.20;;;24.40;55.20;;;;;;5104259;28;20582;-43
2022/04/26 08:19:58;;;;;;;1.63;1.05;;;24.40;55.20;;;;;;5102904;28;20028;-43
2022/04/26 08:22:24;;;;;;;1.08;0.98;;;24.40;55.20;;;;;;5104143;28;20028;-45
2022/04/26 08:27:34;;;;;;;1.90;1.20;;;24.30;55.30;;;;;;5103873;28;20031;-44
2022/04/26 08:30:20;;;;;;;0.93;0.82;;;24.30;55.30;;;;;;5089341;28;20064;-44
2022/04/26 08:32:47;;;;;;;1.20;1.05;;;24.30;55.40;;;;;;5060852;28;20043;-43
2022/04/26 08:35:15;;;;;;;1.85;0.95;;;24.30;55.40;;;;;;5060263;28;20596;-45
2022/04/26 08:37:43;;;;;;;1.60;0.90;;;24.30;55.40;;;;;;5061004;28;20055;-43
2022/04/26 08:40:09;;;;;;;;;;;24.30;55.40;;;;;;5064869;28;20029;-43
2022/04/26 08:42:38;;;;;;;1.75;0.98;;;24.20;55.30;;;;;;5080893;28;19916;-44
2022/04/26 08:45:06;;;;;;;2.00;1.13;;;24.20;55.40;;;;;;5060471;28;20049;-45
2022/04/26 08:53:02;;;;;;;2.00;1.05;;;24.20;55.30;;;;;;5064654;28;20133;-43
2022/04/26 08:55:28;;;;;;;1.70;1.08;;;24.10;55.40;;;;;;5081395;28;20429;-43
2022/04/26 08:57:54;;;;;;;2.08;1.20;;;24.20;55.40;;;;;;5095304;28;20037;-43
2022/04/26 09:00:21;;;;;;;1.40;1.20;;;24.10;55.30;;;;;;5080027;28;20063;-44
2022/04/26 09:03:04;;;;;;;1.70;1.08;;;24.10;55.30;;;;;;5079171;28;20032;-43
2022/04/26 09:05:30;;;;;;;2.15;1.20;;;24.10;55.30;;;;;;5079776;28;20051;-43
2022/04/26 09:07:58;;;;;;;1.60;1.35;;;24.10;55.30;;;;;;5095650;28;20029;-44
2022/04/26 09:10:24;;;;;;;1.30;1.00;;;24.10;55.40;;;;;;5089116;28;20024;-44
2022/04/26 09:13:07;;;;;;;1.48;1.15;;;24.10;55.40;;;;;;5102951;28;20036;-45
2022/04/26 09:15:51;;;;;;;1.35;1.20;;;24.10;55.40;;;;;;5111609;28;20050;-45
2022/04/26 09:18:29;;;;;;;1.27;1.05;;;24.10;55.30;;;;;;5101716;28;20023;-44
2022/04/26 09:21:07;;;;;;;1.80;1.48;;;24.10;55.20;;;;;;5082963;28;20032;-44
2022/04/26 09:23:34;;;;;;;1.77;1.20;;;24.10;55.10;;;;;;5094921;28;20490;-45
2022/04/26 09:26:11;;;;;;;1.77;1.20;;;24.10;55.10;;;;;;5099718;28;20032;-45
2022/04/26 09:28:38;;;;;;;1.58;1.33;;;24.10;55.00;;;;;;5102657;28;20529;-46
2022/04/26 09:31:20;;;;;;;1.95;1.30;;;24.10;55.00;;;;;;5103207;28;21152;-45
2022/04/26 09:33:51;;;;;;;1.52;1.30;;;24.10;54.90;;;;;;5082638;28;20062;-45
2022/04/26 09:36:21;;;;;;;1.75;1.25;;;24.10;54.90;;;;;;5082438;28;20027;-46
2022/04/26 09:39:07;;;;;;;1.75;1.10;;;24.10;54.80;;;;;;5081919;28;20052;-44
2022/04/26 09:41:33;;;;;;;1.20;1.10;;;24.10;54.80;;;;;;5085873;28;20032;-44
2022/04/26 09:44:08;;;;;;;1.80;1.38;;;24.10;54.80;;;;;;5102767;28;20036;-44
2022/04/26 09:46:41;;;;;;;1.73;1.40;;;24.10;54.70;;;;;;5097817;28;20020;-44
2022/04/26 09:49:11;;;;;;;1.92;1.60;;;24.10;54.70;;;;;;5094407;28;20032;-45
2022/04/26 09:51:41;;;;;;;1.88;1.50;;;24.10;54.70;;;;;;5099417;28;20024;-44
2022/04/26 09:54:07;;;;;;;1.25;1.15;;;24.10;54.70;;;;;;5082141;28;20094;-45
2022/04/26 09:56:33;;;;;;;2.03;1.20;;;24.00;55.10;;;;;;5093283;28;20028;-44
2022/04/26 09:59:01;;;;;;;2.13;1.50;;;24.00;54.50;;;;;;5099971;28;20061;-44
2022/04/26 10:01:29;;;;;;;1.73;1.52;;;24.00;54.50;;;;;;5102183;28;20343;-45
2022/04/26 10:03:58;;;;;;;2.22;1.45;;;24.00;54.50;;;;;;5096590;28;20064;-47
2022/04/26 10:06:24;;;;;;;1.50;1.40;;;24.00;54.50;;;;;;5095288;28;20032;-45
2022/04/26 10:08:50;;;;;;;2.80;1.77;;;24.00;54.40;;;;;;5099700;28;20028;-44
2022/04/26 10:11:17;;;;;;;2.35;1.27;;;24.00;54.40;;;;;;5101010;28;20020;-45
2022/04/26 10:13:45;;;;;;;2.03;1.60;;;24.00;54.40;;;;;;5099438;28;20027;-44
2022/04/26 10:16:19;;;;;;;1.60;1.42;;;24.00;54.40;;;;;;5091303;28;20024;-44
2022/04/26 10:18:47;;;;;;;2.55;1.30;;;24.00;54.40;;;;;;5095534;28;20028;-45
2022/04/26 10:21:38;;;;;;;3.35;1.48;;;24.00;54.30;;;;;;5096609;28;20020;-44
2022/04/26 10:24:20;;;;;;;52.53;13.68;;;23.90;54.20;;;;;;5074656;28;20041;-45
2022/04/26 10:26:46;;;;;;;47.60;12.45;;;24.00;54.30;;;;;;5096696;28;20526;-41
2022/04/26 10:29:13;;;;;;;12.10;4.20;;;23.90;54.40;;;;;;5093031;28;20036;-40
2022/04/26 10:31:40;;;;;;;7.68;3.55;;;23.90;54.20;;;;;;5088635;28;20035;-40
2022/04/26 10:34:24;;;;;;;25.05;6.78;;;23.90;54.00;;;;;;5093106;28;20064;-42
2022/04/26 10:36:51;;;;;;;20.27;6.53;;;23.90;54.20;;;;;;5098084;28;20484;-40
2022/04/26 10:39:24;;;;;;;17.92;5.88;;;23.90;54.20;;;;;;5091811;28;20054;-40
2022/04/26 10:41:51;;;;;;;19.38;6.43;;;23.90;54.20;;;;;;5104411;28;20028;-43
2022/04/26 10:44:19;;;;;;;20.25;5.95;;;23.90;54.40;;;;;;5105196;28;20046;-43
2022/04/26 10:46:53;;;;;;;13.00;4.45;;;23.90;54.80;;;;;;5104808;28;20054;-44
2022/04/26 10:49:25;;;;;;;16.58;5.50;;;23.90;55.10;;;;;;5097384;28;20028;-44
2022/04/26 10:51:57;;;;;;;19.10;6.57;;;23.80;55.60;;;;;;5103404;28;20540;-44
2022/04/26 10:54:47;;;;;;;18.98;5.72;;;23.80;55.70;;;;;;5103969;28;20108;-44
2022/04/26 10:57:16;;;;;;;15.98;6.32;;;23.80;55.60;;;;;;5093357;28;20119;-46
2022/04/26 10:59:43;;;;;;;14.65;5.78;;;23.80;55.60;;;;;;5105901;28;20416;-45
2022/04/26 11:02:16;;;;;;;22.55;6.28;;;23.80;55.50;;;;;;5105538;28;20079;-43
2022/04/26 11:04:42;;;;;;;15.68;6.10;;;23.70;55.30;;;;;;5104217;28;20115;-44
2022/04/26 11:07:11;;;;;;;15.32;5.45;;;23.70;55.20;;;;;;5105739;28;20377;-44
2022/04/26 11:09:49;;;;;;;16.02;6.05;;;23.70;55.10;;;;;;5105193;28;20051;-44
2022/04/26 11:12:17;;;;;;;14.45;6.10;;;23.70;55.00;;;;;;5105057;28;20059;-44
2022/04/26 11:14:44;;;;;;;18.08;6.05;;;23.70;54.90;;;;;;5105485;28;20012;-44
2022/04/26 11:17:10;;;;;;;18.80;6.07;;;23.70;54.90;;;;;;5105439;28;20080;-44
2022/04/26 11:19:37;;;;;;;15.55;5.22;;;23.60;54.80;;;;;;5105198;28;20028;-44
2022/04/26 11:22:04;;;;;;;14.05;5.32;;;23.60;54.70;;;;;;5104857;28;20024;-44
2022/04/26 11:30:01;;;;;;;12.43;5.13;;;23.60;54.40;;;;;;5105484;28;20042;-44
2022/04/26 11:32:35;;;;;;;14.45;5.07;;;23.50;54.40;;;;;;5104860;28;20069;-44
2022/04/26 11:35:01;;;;;;;10.60;5.00;;;23.50;54.80;;;;;;5105387;28;20016;-44
2022/04/26 11:37:27;;;;;;;14.45;4.78;;;23.50;54.30;;;;;;5104434;28;20035;-44
2022/04/26 11:39:54;;;;;;;11.43;4.88;;;23.50;54.70;;;;;;5104686;28;20046;-44
2022/04/26 11:42:20;;;;;;;15.93;5.28;;;23.50;54.20;;;;;;5104590;28;20083;-44
2022/04/26 11:45:06;;;;;;;11.98;4.88;;;23.50;54.20;;;;;;5104988;28;20081;-45
2022/04/26 11:47:43;;;;;;;10.80;4.70;;;23.50;54.20;;;;;;5105040;28;20036;-44
2022/04/26 11:50:14;;;;;;;13.05;5.05;;;23.40;54.10;;;;;;5104793;28;20050;-46
2022/04/26 11:52:41;;;;;;;8.65;4.65;;;23.40;54.00;;;;;;5104421;28;20039;-44
2022/04/26 11:55:07;;;;;;;;;;;23.40;54.00;;;;;;5097807;28;20059;-44
2022/04/26 11:57:33;;;;;;;11.60;4.75;;;23.40;53.90;;;;;;5104626;28;19904;-45
2022/04/26 12:00:00;;;;;;;11.73;4.63;;;23.30;53.90;;;;;;5104637;28;20024;-45
2022/04/26 12:02:32;;;;;;;9.93;4.50;;;23.30;53.90;;;;;;5104354;28;20039;-44
2022/04/26 12:04:58;;;;;;;9.13;4.22;;;23.30;53.90;;;;;;5104385;28;20052;-45
2022/04/26 12:07:24;;;;;;;13.23;4.68;;;23.30;53.90;;;;;;5103884;28;20683;-45
2022/04/26 12:09:52;;;;;;;9.00;4.05;;;23.30;53.90;;;;;;5104288;28;20087;-44
2022/04/26 12:12:18;;;;;;;11.52;4.45;;;23.20;53.90;;;;;;5104099;28;20036;-44
2022/04/26 12:14:44;;;;;;;8.88;4.30;;;23.20;53.80;;;;;;5104322;28;20502;-43
2022/04/26 12:17:22;;;;;;;10.48;4.50;;;23.20;53.80;;;;;;5082497;28;20024;-44
2022/04/26 12:19:51;;;;;;;;;;;23.20;53.80;;;;;;5084377;28;20432;-44
2022/04/26 12:22:19;;;;;;;;;;;23.20;53.80;;;;;;5084101;28;19967;-44
2022/04/26 12:24:47;;;;;;;9.20;4.68;;;23.20;53.80;;;;;;5107379;28;19919;-44
2022/04/26 12:27:19;;;;;;;8.90;4.65;;;23.10;53.80;;;;;;5124252;28;20023;-46
2022/04/26 12:29:46;;;;;;;8.93;3.83;;;23.10;53.80;;;;;;5124782;28;20027;-45
2022/04/26 12:32:14;;;;;;;7.25;4.00;;;23.10;53.80;;;;;;5124071;28;20741;-45
2022/04/26 12:35:00;;;;;;;6.97;3.75;;;23.10;53.80;;;;;;5124565;28;20084;-43
2022/04/26 12:37:29;;;;;;;6.95;3.47;;;23.10;53.80;;;;;;5114039;28;20108;-47
2022/04/26 12:39:58;;;;;;;7.90;3.95;;;23.10;53.90;;;;;;5103865;28;20059;-44
2022/04/26 12:42:27;;;;;;;10.85;4.05;;;23.10;53.80;;;;;;5103403;28;20027;-46
2022/04/26 12:45:01;;;;;;;8.77;4.43;;;23.00;53.80;;;;;;5103655;28;20137;-44
2022/04/26 12:50:35;;;;;;;8.32;4.30;;;23.00;53.90;;;;;;5103534;28;20058;-46
2022/04/26 12:53:08;;;;;;;6.82;4.18;;;23.00;53.80;;;;;;5103223;28;20024;-44
2022/04/26 12:55:37;;;;;;;6.60;3.80;;;23.00;53.90;;;;;;5102852;28;20449;-45
2022/04/26 12:58:05;;;;;;;8.95;4.63;;;23.00;53.90;;;;;;5103744;28;20069;-44
2022/04/26 13:00:31;;;;;;;7.28;4.03;;;23.00;53.90;;;;;;5103467;28;20055;-44
2022/04/26 13:03:00;;;;;;;6.82;3.78;;;22.90;53.90;;;;;;5102152;28;20020;-46
2022/04/26 13:05:27;;;;;;;8.32;3.45;;;22.90;54.00;;;;;;5103152;28;20040;-44
2022/04/26 13:07:53;;;;;;;7.00;3.80;;;22.90;53.90;;;;;;5103319;28;20098;-44
2022/04/26 13:10:20;;;;;;;8.10;4.20;;;22.90;53.90;;;;;;5103101;28;20264;-44
2022/04/26 13:12:47;;;;;;;6.65;3.17;;;22.90;53.90;;;;;;5102950;28;20023;-44
2022/04/26 13:15:15;;;;;;;6.28;3.70;;;22.90;53.90;;;;;;5103252;28;20026;-44
2022/04/26 13:17:42;;;;;;;5.93;3.58;;;22.90;53.90;;;;;;5102935;28;20062;-44
2022/04/26 13:20:10;;;;;;;7.87;3.80;;;22.90;53.90;;;;;;5102592;28;20043;-44
2022/04/26 13:22:37;;;;;;;7.88;3.80;;;22.90;53.90;;;;;;5102218;28;20019;-44
2022/04/26 13:25:04;;;;;;;6.07;3.53;;;22.90;54.00;;;;;;5102490;28;20028;-47
2022/04/26 13:27:31;;;;;;;6.30;3.50;;;22.90;53.90;;;;;;5103299;28;20028;-45
2022/04/26 13:29:57;;;;;;;;;;;22.90;54.00;;;;;;5103289;28;20059;-45
2022/04/26 13:32:23;;;;;;;5.03;3.53;;;22.90;54.00;;;;;;5102896;28;19934;-46
2022/04/26 13:34:50;;;;;;;6.53;3.45;;;22.90;54.10;;;;;;5082240;28;20028;-44
2022/04/26 13:37:17;;;;;;;5.20;3.35;;;22.90;54.10;;;;;;5091099;28;20032;-45
2022/04/26 13:39:45;;;;;;;5.85;3.58;;;22.90;54.20;;;;;;5102557;28;20032;-44
2022/04/26 13:42:12;;;;;;;5.80;3.47;;;22.90;54.20;;;;;;5101373;28;20032;-44
2022/04/26 13:44:38;;;;;;;6.53;3.60;;;22.90;54.20;;;;;;5102203;28;20100;-45
2022/04/26 13:47:06;;;;;;;5.40;3.10;;;22.90;54.30;;;;;;5102665;28;20454;-46
2022/04/26 13:49:34;;;;;;;5.88;3.10;;;22.90;54.30;;;;;;5102558;28;20447;-44
2022/04/26 13:52:01;;;;;;;5.43;3.17;;;22.90;54.40;;;;;;5102650;28;20020;-44
2022/04/26 13:54:27;;;;;;;6.30;3.20;;;22.90;54.40;;;;;;5100293;28;20027;-45
2022/04/26 13:56:56;;;;;;;6.10;3.30;;;22.90;54.40;;;;;;5082332;28;20044;-46
2022/04/26 13:59:24;;;;;;;5.60;2.97;;;22.90;54.40;;;;;;5082047;28;20036;-49
2022/04/26 14:01:54;;;;;;;6.38;3.40;;;22.90;54.50;;;;;;5082284;28;20058;-46
2022/04/26 14:04:20;;;;;;;5.63;3.35;;;22.90;54.60;;;;;;5097830;28;20713;-46
2022/04/26 14:06:47;;;;;;;6.32;3.25;;;22.90;54.70;;;;;;5090903;28;20020;-45
2022/04/26 14:09:13;;;;;;;5.35;3.47;;;22.90;54.80;;;;;;5100784;28;20135;-44
2022/04/26 14:11:39;;;;;;;5.30;2.95;;;22.90;54.90;;;;;;5102427;28;20028;-44
2022/04/26 14:22:19;;;;;;;5.97;3.15;;;22.90;55.30;;;;;;5102410;28;20098;-47
2022/04/26 14:24:47;;;;;;;5.75;3.17;;;23.00;55.50;;;;;;5101227;28;20212;-45
2022/04/26 14:27:14;;;;;;;5.80;3.30;;;23.00;55.60;;;;;;5102062;28;20028;-44
2022/04/26 14:29:40;;;;;;;5.10;3.00;;;23.00;55.60;;;;;;5102238;28;20036;-44
2022/04/26 14:32:07;;;;;;;5.57;3.00;;;23.00;55.70;;;;;;5101930;28;20264;-44
2022/04/26 14:34:33;;;;;;;6.68;3.50;;;23.00;55.80;;;;;;5101802;28;20551;-46
2022/04/26 14:37:03;;;;;;;4.50;2.78;;;23.00;55.80;;;;;;5101682;28;20059;-44
2022/04/26 14:39:29;;;;;;;4.78;3.30;;;23.00;55.80;;;;;;5101750;28;20039;-45
2022/04/26 14:41:56;;;;;;;4.72;2.90;;;23.00;56.00;;;;;;5102275;28;20035;-43
2022/04/26 14:44:22;;;;;;;5.38;3.17;;;23.00;56.00;;;;;;5101778;28;20135;-44
2022/04/26 14:46:48;;;;;;;4.90;3.20;;;23.00;56.10;;;;;;5102001;28;20021;-44
2022/04/26 14:49:14;;;;;;;4.97;3.15;;;23.00;56.20;;;;;;5101934;28;20024;-44
2022/04/26 14:51:40;;;;;;;4.90;2.80;;;23.00;56.20;;;;;;5102180;28;20024;-45
2022/04/26 14:54:06;;;;;;;4.10;3.13;;;23.10;56.30;;;;;;5101526;28;20035;-40
2022/04/26 14:56:32;;;;;;;5.60;3.30;;;23.10;56.40;;;;;;5082217;28;20096;-39
2022/04/26 14:59:01;;;;;;;4.35;2.70;;;23.10;56.40;;;;;;5095969;28;20028;-39
2022/04/26 15:01:29;;;;;;;4.18;2.80;;;23.10;56.50;;;;;;5102247;28;20035;-39
2022/04/26 15:03:58;;;;;;;4.47;2.70;;;23.10;56.60;;;;;;5101457;28;20131;-39
2022/04/26 15:06:25;;;;;;;5.75;3.13;;;23.10;56.60;;;;;;5101753;28;20035;-39
2022/04/26 15:11:35;;;;;;;5.15;3.08;;;23.10;56.70;;;;;;5103573;28;20085;-40
2022/04/26 15:16:49;;;;;;;5.38;3.25;;;23.10;56.70;;;;;;5105387;28;20061;-39
2022/04/26 15:19:15;;;;;;;5.53;3.10;;;23.10;56.70;;;;;;5104967;28;20032;-39
2022/04/26 15:21:43;;;;;;;4.37;2.73;;;23.20;56.70;;;;;;5105447;28;20024;-40
2022/04/26 15:24:12;;;;;;;4.13;2.60;;;23.20;56.70;;;;;;5104702;28;20280;-38
2022/04/26 15:26:39;;;;;;;4.25;2.88;;;23.20;56.70;;;;;;5091584;28;20032;-38
2022/04/26 15:29:05;;;;;;;4.50;2.85;;;23.20;56.70;;;;;;5105393;28;20039;-38
2022/04/26 15:31:33;;;;;;;3.27;2.67;;;23.10;56.70;;;;;;5105090;28;20060;-39
2022/04/26 15:33:59;;;;;;;5.75;3.10;;;23.20;56.70;;;;;;5105175;28;20027;-38
2022/04/26 15:36:25;;;;;;;4.53;2.88;;;23.20;56.70;;;;;;5104800;28;20028;-38
2022/04/26 15:38:55;;;;;;;4.82;3.00;;;23.20;56.70;;;;;;5104982;28;20024;-38
2022/04/26 15:41:23;;;;;;;5.97;2.85;;;23.20;56.60;;;;;;5105247;28;20032;-38
2022/04/26 15:43:50;;;;;;;5.45;2.55;;;23.20;56.60;;;;;;5104864;28;20051;-38
2022/04/26 15:46:16;;;;;;;5.03;3.00;;;23.20;56.60;;;;;;5104524;28;20028;-38
2022/04/26 15:48:47;;;;;;;6.20;2.85;;;23.20;56.60;;;;;;5104902;28;20032;-38
2022/04/26 15:51:16;;;;;;;4.25;2.75;;;23.20;56.60;;;;;;5104718;28;20025;-38
2022/04/26 15:53:46;;;;;;;4.55;2.65;;;23.20;56.60;;;;;;5104589;28;20032;-39
2022/04/26 15:56:13;;;;;;;3.90;2.60;;;23.20;56.50;;;;;;5088164;28;20259;-38
2022/04/26 15:58:40;;;;;;;3.67;2.67;;;23.20;56.50;;;;;;5084382;28;20025;-38
2022/04/26 16:01:06;;;;;;;4.35;2.85;;;23.20;56.40;;;;;;5084471;28;20028;-39
2022/04/26 16:03:32;;;;;;;4.28;2.60;;;23.20;56.50;;;;;;5084038;28;20044;-39
2022/04/26 16:05:58;;;;;;;5.10;2.47;;;23.20;56.40;;;;;;5084115;28;20025;-39
2022/04/26 16:08:24;;;;;;;3.92;2.47;;;23.20;56.40;;;;;;5104129;28;20027;-39
2022/04/26 16:21:52;;;;;;;3.45;2.40;;;23.30;56.40;;;;;;5104283;28;20831;-41
2022/04/26 16:24:19;;;;;;;3.47;2.53;;;23.20;56.30;;;;;;5103922;28;20047;-40
2022/04/26 16:26:45;;;;;;;3.00;2.10;;;23.20;56.20;;;;;;5102698;28;20063;-40
2022/04/26 16:29:12;;;;;;;3.42;2.50;;;23.30;56.30;;;;;;5104173;28;20123;-41
2022/04/26 16:31:38;;;;;;;3.65;2.70;;;23.30;56.30;;;;;;5104016;28;20031;-40
2022/04/26 16:34:05;;;;;;;6.43;2.75;;;23.20;56.20;;;;;;5103996;28;20537;-40
2022/04/26 16:36:31;;;;;;;3.27;2.50;;;23.20;56.20;;;;;;5095563;28;20032;-41
2022/04/26 16:38:58;;;;;;;3.47;2.03;;;23.20;56.20;;;;;;5100180;28;20028;-41
2022/04/26 16:41:25;;;;;;;4.28;2.35;;;23.20;56.20;;;;;;5103921;28;20629;-41
2022/04/26 16:43:51;;;;;;;3.47;2.00;;;23.30;56.20;;;;;;5103749;28;20134;-42
2022/04/26 16:46:19;;;;;;;4.10;2.58;;;23.20;56.20;;;;;;5103035;28;20027;-42
2022/04/26 16:48:48;;;;;;;3.65;2.22;;;23.30;56.20;;;;;;5103453;28;20055;-41
2022/04/26 16:51:19;;;;;;;3.60;2.45;;;23.20;56.10;;;;;;5103800;28;20024;-41
2022/04/26 16:53:46;;;;;;;3.55;2.15;;;23.30;56.20;;;;;;5103630;28;20449;-41
2022/04/26 16:56:12;;;;;;;2.65;2.08;;;23.30;56.20;;;;;;5086266;28;20024;-42
2022/04/26 16:58:38;;;;;;;3.22;2.25;;;23.30;56.20;;;;;;5083440;28;20032;-42
2022/04/26 17:01:05;;;;;;;3.78;2.33;;;23.30;56.20;;;;;;5083169;28;20127;-43
2022/04/26 17:03:31;;;;;;;2.88;2.00;;;23.30;56.10;;;;;;5083021;28;20060;-43
2022/04/26 17:05:58;;;;;;;2.85;2.22;;;23.30;56.10;;;;;;5101167;28;20032;-43
2022/04/26 17:08:24;;;;;;;3.75;2.10;;;23.30;56.20;;;;;;5102953;28;20111;-43
2022/04/26 17:10:50;;;;;;;4.28;2.22;;;23.30;56.20;;;;;;5103249;28;20032;-45
2022/04/26 17:13:17;;;;;;;2.95;2.08;;;23.30;56.30;;;;;;5103437;28;20028;-45
2022/04/26 17:15:43;;;;;;;4.53;2.33;;;23.30;56.20;;;;;;5103191;28;20040;-45